< < Back
Terminal Aerodrome Forecast


Current Version              Previous Versions:   1  2  3  4  5  6  7  8  9  

Terminal Aerodrome Forecast

965
FTUS44 KMOB 010520
TAFPNS
TAF
KPNS 010520Z 0106/0206 14012G19KT P6SM BKN006
     FM011300 17013KT P6SM OVC020
      TEMPO 0119/0123 4SM TSRA BKN015CB
     FM020000 16008KT P6SM BKN100=



Latest METAR

567
SAUS70 KWBC 011300 RRT
MTRPNS
METAR KPNS 011253Z 15008KT 9SM FEW008 SCT019 24/23 A2998 RMK AO2 SLP152
T02440228


USA.gov is the U.S. government's official web portal to all federal, state and local government web resources and services.